Time;durP1;ratioP1;P1;durP2;ratioP2;P2;SDS_P1;SDS_P2;PMS_P1;PMS_P2;Temp;Humidity;BMP_temperature;BMP_pressure;BME280_temperature;BME280_humidity;BME280_pressure;Samples;Min_cycle;Max_cycle;Signal;HPM_P1;HPM_P2
2021/05/04 00:02:08;;;;;;;3.80;3.50;;;9.80;99.90;;;;;;5081423;28;20630;-86
2021/05/04 00:04:34;;;;;;;3.65;3.35;;;9.80;99.90;;;;;;5080931;28;20213;-87
2021/05/04 00:07:01;;;;;;;4.55;4.22;;;9.80;99.90;;;;;;5082241;28;20565;-87
2021/05/04 00:09:28;;;;;;;4.47;3.80;;;9.90;99.90;;;;;;5083864;28;20210;-87
2021/05/04 00:11:55;;;;;;;5.10;4.03;;;9.90;99.90;;;;;;5089343;28;20241;-86
2021/05/04 00:14:22;;;;;;;4.65;4.20;;;10.00;99.90;;;;;;5088064;28;20229;-87
2021/05/04 00:16:49;;;;;;;4.28;3.97;;;10.00;99.90;;;;;;5065315;28;20271;-86
2021/05/04 00:19:15;;;;;;;4.32;3.92;;;10.00;99.90;;;;;;5064486;28;20239;-87
2021/05/04 00:21:42;;;;;;;6.38;3.40;;;10.00;99.90;;;;;;5064375;28;20445;-87
2021/05/04 00:24:09;;;;;;;5.93;3.85;;;10.10;99.90;;;;;;5082731;28;20201;-88
2021/05/04 00:26:36;;;;;;;5.15;4.30;;;10.20;99.90;;;;;;5080525;28;20248;-88
2021/05/04 00:29:04;;;;;;;6.38;4.32;;;10.20;99.90;;;;;;5045689;28;20645;-87
2021/05/04 00:31:31;;;;;;;4.15;3.83;;;10.10;99.90;;;;;;5056333;28;20219;-87
2021/05/04 00:33:57;;;;;;;4.55;4.15;;;10.10;99.90;;;;;;5078956;28;20631;-87
2021/05/04 00:36:24;;;;;;;4.45;4.05;;;10.00;99.90;;;;;;5062497;28;20203;-86
2021/05/04 00:38:51;;;;;;;5.22;3.75;;;10.10;99.90;;;;;;5080189;28;20228;-87
2021/05/04 00:41:18;;;;;;;3.90;3.60;;;10.10;99.90;;;;;;5080642;28;20194;-88
2021/05/04 00:43:44;;;;;;;4.22;3.72;;;10.10;99.90;;;;;;5063296;28;20195;-86
2021/05/04 00:46:12;;;;;;;4.93;4.53;;;10.20;99.90;;;;;;5064580;28;20205;-85
2021/05/04 00:48:39;;;;;;;5.72;4.47;;;10.30;99.90;;;;;;5083211;28;20199;-86
2021/05/04 00:51:06;;;;;;;4.72;3.92;;;10.20;99.90;;;;;;5085676;28;20222;-88
2021/05/04 00:53:33;;;;;;;6.50;4.03;;;10.30;99.90;;;;;;5085047;28;20199;-87
2021/05/04 00:56:01;;;;;;;4.75;4.35;;;10.30;99.90;;;;;;5064397;28;20702;-85
2021/05/04 00:58:32;;;;;;;11.55;4.80;;;10.30;99.90;;;;;;5083600;28;20198;-88
2021/05/04 01:01:00;;;;;;;4.93;3.97;;;10.30;99.90;;;;;;5083202;28;20293;-87
2021/05/04 01:03:28;;;;;;;4.55;4.07;;;10.30;99.90;;;;;;5063697;28;20220;-85
2021/05/04 01:05:54;;;;;;;6.00;4.90;;;10.40;99.90;;;;;;5066376;28;20207;-87
2021/05/04 01:08:21;;;;;;;4.53;3.92;;;10.30;99.90;;;;;;5048987;28;20198;-88
2021/05/04 01:10:48;;;;;;;6.28;5.03;;;10.30;99.90;;;;;;5065163;28;20785;-87
2021/05/04 01:13:14;;;;;;;4.82;4.43;;;10.40;99.90;;;;;;5066379;28;20210;-87
2021/05/04 01:15:41;;;;;;;6.28;4.85;;;10.30;99.90;;;;;;5064455;28;20214;-85
2021/05/04 01:18:08;;;;;;;7.20;5.30;;;10.30;99.90;;;;;;5064927;28;20289;-87
2021/05/04 01:20:37;;;;;;;5.47;4.97;;;10.40;99.90;;;;;;5083403;28;20214;-88
2021/05/04 01:23:04;;;;;;;5.45;4.95;;;10.40;99.90;;;;;;5062573;28;20545;-89
2021/05/04 01:25:31;;;;;;;5.20;4.70;;;10.40;99.90;;;;;;5079171;28;20202;-87
2021/05/04 01:27:58;;;;;;;5.57;4.55;;;10.30;99.90;;;;;;5060670;28;20208;-87
2021/05/04 01:30:25;;;;;;;4.97;4.47;;;10.30;99.90;;;;;;5044878;28;20713;-87
2021/05/04 01:32:52;;;;;;;5.18;4.68;;;10.40;99.90;;;;;;5045741;28;20221;-88
2021/05/04 01:35:18;;;;;;;4.45;4.07;;;10.40;99.90;;;;;;5080432;28;20215;-87
2021/05/04 01:37:46;;;;;;;4.88;4.47;;;10.40;99.90;;;;;;5045384;28;20570;-88
2021/05/04 01:40:16;;;;;;;5.70;5.15;;;10.40;99.90;;;;;;5079042;28;20202;-87
2021/05/04 01:42:44;;;;;;;4.60;4.22;;;10.40;99.90;;;;;;5080826;28;20197;-85
2021/05/04 01:45:12;;;;;;;5.65;5.00;;;10.40;99.90;;;;;;5044503;28;20195;-85
2021/05/04 01:47:38;;;;;;;8.13;4.88;;;10.40;99.90;;;;;;5079120;28;20190;-87
2021/05/04 01:50:06;;;;;;;5.07;4.68;;;10.40;99.90;;;;;;5078381;28;20647;-87
2021/05/04 01:52:33;;;;;;;4.93;4.43;;;10.50;99.90;;;;;;5080349;28;20344;-87
2021/05/04 01:55:00;;;;;;;5.93;5.07;;;10.50;99.90;;;;;;5080397;28;20198;-87
2021/05/04 01:57:27;;;;;;;4.70;4.30;;;10.60;99.90;;;;;;5078097;28;20210;-87
2021/05/04 01:59:55;;;;;;;6.55;5.18;;;10.60;99.90;;;;;;5063137;28;20225;-86
2021/05/04 02:02:22;;;;;;;5.70;4.65;;;10.60;99.90;;;;;;5046895;28;20207;-87
2021/05/04 02:04:48;;;;;;;4.82;4.43;;;10.60;99.90;;;;;;5061932;28;20210;-88
2021/05/04 02:07:15;;;;;;;4.30;4.00;;;10.60;99.90;;;;;;5080192;28;20213;-88
2021/05/04 02:09:41;;;;;;;5.55;4.60;;;10.50;99.90;;;;;;5080307;28;20227;-88
2021/05/04 02:12:08;;;;;;;5.20;4.78;;;10.50;99.90;;;;;;5080709;28;20207;-88
2021/05/04 02:14:36;;;;;;;9.18;4.55;;;10.60;99.90;;;;;;5048380;28;20190;-87
2021/05/04 02:17:03;;;;;;;12.20;4.60;;;10.60;99.90;;;;;;5082081;28;20194;-87
2021/05/04 02:19:29;;;;;;;5.38;4.18;;;10.70;99.90;;;;;;5062009;28;20230;-88
2021/05/04 02:22:05;;;;;;;6.47;4.20;;;10.60;99.90;;;;;;5060877;28;20193;-87
2021/05/04 02:24:32;;;;;;;9.00;4.13;;;10.60;99.90;;;;;;5080430;28;20261;-86
2021/05/04 02:26:59;;;;;;;4.95;4.55;;;10.70;99.90;;;;;;5082914;28;20286;-85
2021/05/04 02:29:26;;;;;;;5.07;4.57;;;10.80;99.90;;;;;;5082023;28;20223;-83
2021/05/04 02:32:10;;;;;;;5.38;4.60;;;10.80;99.90;;;;;;5078959;28;20211;-84
2021/05/04 02:34:37;;;;;;;4.85;4.45;;;10.80;99.90;;;;;;5061786;28;20279;-85
2021/05/04 02:37:04;;;;;;;7.75;5.00;;;10.80;99.90;;;;;;5061256;28;20674;-82
2021/05/04 02:39:31;;;;;;;4.47;4.07;;;10.80;99.90;;;;;;5079384;28;20225;-84
2021/05/04 02:41:58;;;;;;;4.15;3.75;;;10.80;99.90;;;;;;5060389;28;20297;-84
2021/05/04 02:44:24;;;;;;;4.65;4.25;;;10.80;99.90;;;;;;5078178;28;20277;-85
2021/05/04 02:46:51;;;;;;;3.97;3.45;;;10.90;99.90;;;;;;5044124;28;20198;-83
2021/05/04 02:49:19;;;;;;;4.32;3.92;;;10.80;99.90;;;;;;5078295;28;20242;-85
2021/05/04 02:51:46;;;;;;;5.35;4.85;;;10.90;99.90;;;;;;5061504;28;20254;-84
2021/05/04 02:54:13;;;;;;;5.35;4.85;;;10.80;99.90;;;;;;5078910;28;20190;-85
2021/05/04 02:56:40;;;;;;;4.57;4.05;;;10.90;99.90;;;;;;5077896;28;20191;-84
2021/05/04 02:59:07;;;;;;;5.68;4.43;;;10.90;99.90;;;;;;5064908;28;20198;-86
2021/05/04 03:01:34;;;;;;;4.78;4.28;;;10.90;99.90;;;;;;5079957;28;20201;-86
2021/05/04 03:04:01;;;;;;;5.20;3.85;;;10.90;99.90;;;;;;5081994;28;20206;-84
2021/05/04 03:06:28;;;;;;;5.63;4.18;;;10.90;99.90;;;;;;5080372;28;20194;-84
2021/05/04 03:08:55;;;;;;;5.28;4.78;;;11.00;99.90;;;;;;5080810;28;20191;-83
2021/05/04 03:11:22;;;;;;;5.40;4.50;;;11.00;99.90;;;;;;5062295;28;20293;-84
2021/05/04 03:13:48;;;;;;;5.88;5.03;;;11.00;99.90;;;;;;5079287;28;20213;-84
2021/05/04 03:16:15;;;;;;;6.28;4.60;;;11.00;99.90;;;;;;5078538;28;20197;-85
2021/05/04 03:18:42;;;;;;;7.25;4.72;;;11.00;99.90;;;;;;5044929;28;20202;-85
2021/05/04 03:21:08;;;;;;;5.13;4.63;;;11.00;99.90;;;;;;5076515;28;20225;-86
2021/05/04 03:23:36;;;;;;;6.20;5.47;;;11.10;99.90;;;;;;5059950;28;20214;-84
2021/05/04 03:26:03;;;;;;;5.72;4.28;;;11.00;99.90;;;;;;5061380;28;20234;-84
2021/05/04 03:28:30;;;;;;;6.50;4.50;;;11.00;99.90;;;;;;5060191;28;20221;-85
2021/05/04 03:30:56;;;;;;;4.72;4.30;;;10.90;99.90;;;;;;5044518;28;20230;-86
2021/05/04 03:33:23;;;;;;;6.68;4.50;;;10.90;99.90;;;;;;5059555;28;20563;-84
2021/05/04 03:35:51;;;;;;;6.25;5.57;;;10.90;99.90;;;;;;5078371;28;20202;-84
2021/05/04 03:38:18;;;;;;;7.40;4.57;;;11.00;99.90;;;;;;5078712;28;20606;-88
2021/05/04 03:40:45;;;;;;;5.25;4.13;;;11.00;99.90;;;;;;5043696;28;20705;-85
2021/05/04 03:43:12;;;;;;;4.35;3.95;;;11.00;99.90;;;;;;5059709;28;20241;-85
2021/05/04 03:45:39;;;;;;;7.55;5.10;;;11.10;99.90;;;;;;5077185;28;20685;-85
2021/05/04 03:48:06;;;;;;;6.22;4.82;;;11.10;99.90;;;;;;5077264;28;20221;-84
2021/05/04 03:50:35;;;;;;;9.13;4.60;;;11.10;99.90;;;;;;5059477;28;20305;-86
2021/05/04 03:53:01;;;;;;;5.28;3.90;;;11.10;99.90;;;;;;5034451;28;20221;-88
2021/05/04 03:55:29;;;;;;;14.02;5.05;;;11.20;99.90;;;;;;5059416;28;20244;-82
2021/05/04 03:57:56;;;;;;;4.85;4.38;;;11.20;99.90;;;;;;5077618;28;20482;-83
2021/05/04 04:00:23;;;;;;;5.53;4.82;;;11.30;99.90;;;;;;5060059;28;20590;-85
2021/05/04 04:02:51;;;;;;;4.50;4.10;;;11.20;99.90;;;;;;5058648;28;20213;-83
2021/05/04 04:05:18;;;;;;;3.78;3.33;;;11.50;99.90;;;;;;5060922;28;20227;-84
2021/05/04 04:07:45;;;;;;;4.43;3.83;;;11.70;99.90;;;;;;5078555;28;20218;-83
2021/05/04 04:10:12;;;;;;;4.22;3.78;;;11.80;99.90;;;;;;5058286;28;20507;-83
2021/05/04 04:12:39;;;;;;;8.02;4.10;;;11.90;99.90;;;;;;5077712;28;20210;-82
2021/05/04 04:15:09;;;;;;;4.40;3.15;;;11.80;99.90;;;;;;5079560;28;20237;-84
2021/05/04 04:17:36;;;;;;;6.13;4.15;;;11.70;99.90;;;;;;5056798;28;20690;-82
2021/05/04 04:20:03;;;;;;;8.10;3.67;;;11.70;99.90;;;;;;5059650;28;20636;-82
2021/05/04 04:22:30;;;;;;;7.97;3.10;;;11.70;99.90;;;;;;5060535;28;20183;-82
2021/05/04 04:25:01;;;;;;;4.93;3.50;;;11.50;99.90;;;;;;5081029;28;20281;-80
2021/05/04 04:27:28;;;;;;;3.35;3.05;;;11.40;99.90;;;;;;5061798;28;20674;-81
2021/05/04 04:29:54;;;;;;;4.30;3.92;;;11.00;99.90;;;;;;5079216;28;20226;-82
2021/05/04 04:32:22;;;;;;;4.22;3.35;;;11.10;99.90;;;;;;5078715;28;20230;-81
2021/05/04 04:34:50;;;;;;;3.03;2.83;;;11.00;99.90;;;;;;5060929;28;20209;-82
2021/05/04 04:37:22;;;;;;;5.70;3.63;;;10.80;99.90;;;;;;5077413;28;20202;-81
2021/05/04 04:39:49;;;;;;;11.48;3.50;;;10.90;99.90;;;;;;5058949;28;20591;-82
2021/05/04 04:42:16;;;;;;;9.05;2.80;;;10.80;99.90;;;;;;5077780;28;20215;-81
2021/05/04 04:44:43;;;;;;;2.58;2.38;;;10.80;99.90;;;;;;5076835;28;20245;-80
2021/05/04 04:47:12;;;;;;;5.47;2.72;;;10.80;99.90;;;;;;5076222;28;20205;-82
2021/05/04 04:49:39;;;;;;;4.20;3.28;;;10.80;99.90;;;;;;5058605;28;20268;-83
2021/05/04 04:52:06;;;;;;;3.03;2.67;;;10.80;99.90;;;;;;5077768;28;20227;-82
2021/05/04 04:54:33;;;;;;;3.40;2.60;;;10.80;99.90;;;;;;5068873;28;20210;-82
2021/05/04 04:57:01;;;;;;;2.63;2.42;;;10.80;99.90;;;;;;5076554;28;20210;-82
2021/05/04 04:59:28;;;;;;;2.78;2.30;;;10.80;99.90;;;;;;5059348;28;20306;-82
2021/05/04 05:01:57;;;;;;;3.53;2.78;;;10.80;99.90;;;;;;5057641;28;20230;-84
2021/05/04 05:04:24;;;;;;;7.40;3.38;;;10.80;99.90;;;;;;5057894;28;20210;-82
2021/05/04 05:06:52;;;;;;;3.00;2.67;;;10.50;99.90;;;;;;5058376;28;20555;-82
2021/05/04 05:09:19;;;;;;;2.90;2.70;;;10.40;99.90;;;;;;5075376;28;20249;-82
2021/05/04 05:11:46;;;;;;;4.07;2.92;;;10.30;99.90;;;;;;5041573;28;20355;-82
2021/05/04 05:14:13;;;;;;;3.33;3.03;;;10.30;99.90;;;;;;5076101;28;20206;-82
2021/05/04 05:16:40;;;;;;;3.58;3.28;;;10.30;99.90;;;;;;5075768;28;20217;-82
2021/05/04 05:19:07;;;;;;;3.13;2.75;;;10.20;99.90;;;;;;5057167;28;20255;-83
2021/05/04 05:21:36;;;;;;;3.58;3.30;;;10.10;99.90;;;;;;5076500;28;20197;-83
2021/05/04 05:24:05;;;;;;;3.42;3.13;;;10.10;99.90;;;;;;5057587;28;20198;-81
2021/05/04 05:26:32;;;;;;;3.95;3.42;;;10.10;99.90;;;;;;5075562;28;20195;-81
2021/05/04 05:28:59;;;;;;;5.93;3.53;;;9.90;99.90;;;;;;5075172;28;20203;-83
2021/05/04 05:31:29;;;;;;;3.63;3.33;;;9.80;99.90;;;;;;5075774;28;20203;-84
2021/05/04 05:33:56;;;;;;;3.40;3.10;;;9.70;99.90;;;;;;5079270;28;20573;-82
2021/05/04 05:36:23;;;;;;;4.40;4.00;;;9.70;99.90;;;;;;5061436;28;20188;-82
2021/05/04 05:38:50;;;;;;;4.70;3.63;;;9.60;99.90;;;;;;5080251;28;20203;-82
2021/05/04 05:41:17;;;;;;;6.03;4.05;;;9.60;99.90;;;;;;5078652;28;20194;-82
2021/05/04 05:43:44;;;;;;;4.13;3.72;;;9.50;99.90;;;;;;5060472;28;20253;-79
2021/05/04 05:46:11;;;;;;;5.30;3.75;;;9.30;99.90;;;;;;5080251;28;20202;-81
2021/05/04 05:48:38;;;;;;;7.47;3.95;;;9.30;99.90;;;;;;5052234;28;20261;-82
2021/05/04 05:51:05;;;;;;;5.45;4.75;;;9.30;99.90;;;;;;5081621;28;20215;-82
2021/05/04 05:53:32;;;;;;;4.90;3.15;;;9.30;99.90;;;;;;5080663;28;20573;-80
2021/05/04 05:55:58;;;;;;;3.17;2.97;;;9.00;99.90;;;;;;5078468;28;20195;-81
2021/05/04 05:58:26;;;;;;;4.70;4.30;;;8.90;99.90;;;;;;5079248;28;20194;-81
2021/05/04 06:00:55;;;;;;;5.80;3.70;;;9.00;99.90;;;;;;5080329;28;20649;-80
2021/05/04 06:03:22;;;;;;;7.45;3.90;;;8.80;99.90;;;;;;5060805;28;20218;-81
2021/05/04 06:05:49;;;;;;;3.95;3.65;;;8.90;99.90;;;;;;5079446;28;20673;-81
2021/05/04 06:08:16;;;;;;;3.63;3.22;;;8.90;99.90;;;;;;5060292;28;20198;-80
2021/05/04 06:10:43;;;;;;;4.20;3.80;;;9.00;99.90;;;;;;5074791;28;20252;-80
2021/05/04 06:13:10;;;;;;;6.28;4.50;;;9.00;99.90;;;;;;5075862;28;20218;-81
2021/05/04 06:15:39;;;;;;;5.13;4.63;;;9.00;99.90;;;;;;5056195;28;20191;-80
2021/05/04 06:18:06;;;;;;;4.32;3.92;;;9.00;99.90;;;;;;5081440;28;20321;-83
2021/05/04 06:20:34;;;;;;;6.53;5.32;;;9.00;99.90;;;;;;5061761;28;20272;-82
2021/05/04 06:23:01;;;;;;;4.53;4.13;;;9.00;99.90;;;;;;5079660;28;20600;-82
2021/05/04 06:25:28;;;;;;;5.93;5.32;;;9.00;99.90;;;;;;5040548;28;20199;-80
2021/05/04 06:27:59;;;;;;;4.70;4.38;;;8.90;99.90;;;;;;5079446;28;20194;-81
2021/05/04 06:30:27;;;;;;;5.53;4.00;;;8.90;99.90;;;;;;5063433;28;20231;-82
2021/05/04 06:32:54;;;;;;;4.88;4.47;;;9.00;99.90;;;;;;5089211;28;20222;-80
2021/05/04 06:35:22;;;;;;;7.65;4.72;;;9.10;99.90;;;;;;5060979;28;20191;-83
2021/05/04 06:37:51;;;;;;;5.03;4.53;;;9.20;99.90;;;;;;5079073;28;20201;-81
2021/05/04 06:40:18;;;;;;;4.40;3.97;;;9.50;99.90;;;;;;5077153;28;20214;-83
2021/05/04 06:42:45;;;;;;;9.73;4.80;;;9.60;99.90;;;;;;5077753;28;20290;-82
2021/05/04 06:45:12;;;;;;;4.38;3.63;;;9.60;99.90;;;;;;5033025;28;20228;-81
2021/05/04 06:47:39;;;;;;;3.80;3.50;;;9.50;99.90;;;;;;5085952;28;20214;-83
2021/05/04 06:50:08;;;;;;;6.85;3.78;;;9.50;99.90;;;;;;5078080;28;20210;-81
2021/05/04 06:52:34;;;;;;;3.53;3.03;;;9.50;99.90;;;;;;5041722;28;20222;-81
2021/05/04 06:55:01;;;;;;;3.17;2.63;;;9.60;99.90;;;;;;5064390;28;20189;-83
2021/05/04 06:57:28;;;;;;;5.22;3.28;;;9.60;99.90;;;;;;5059231;28;20230;-81
2021/05/04 06:59:55;;;;;;;3.05;2.30;;;9.50;99.90;;;;;;5080360;28;20220;-83
2021/05/04 07:02:21;;;;;;;3.17;2.97;;;9.50;99.90;;;;;;5073820;28;20195;-83
2021/05/04 07:04:48;;;;;;;3.10;2.40;;;9.50;99.90;;;;;;5076381;28;20217;-83
2021/05/04 07:07:16;;;;;;;3.47;3.17;;;9.20;99.90;;;;;;5083965;28;20201;-84
2021/05/04 07:09:44;;;;;;;3.15;2.88;;;9.10;99.90;;;;;;5077286;28;20266;-82
2021/05/04 07:12:12;;;;;;;2.90;2.70;;;9.20;99.90;;;;;;5076059;28;20238;-81
2021/05/04 07:14:39;;;;;;;3.78;2.47;;;9.10;99.90;;;;;;5081076;28;20250;-84
2021/05/04 07:17:06;;;;;;;4.50;3.00;;;9.10;99.90;;;;;;5084788;28;20205;-84
2021/05/04 07:19:36;;;;;;;3.72;3.42;;;9.10;99.90;;;;;;5090146;28;20225;-83
2021/05/04 07:22:02;;;;;;;3.13;2.85;;;9.10;99.90;;;;;;5090527;28;20194;-84
2021/05/04 07:24:30;;;;;;;3.00;2.75;;;9.20;99.90;;;;;;5090843;28;20207;-81
2021/05/04 07:26:56;;;;;;;3.78;3.03;;;9.20;99.90;;;;;;5093318;28;20202;-84
2021/05/04 07:29:23;;;;;;;2.95;2.75;;;9.30;99.90;;;;;;5058810;28;20257;-85
2021/05/04 07:31:50;;;;;;;2.67;2.47;;;9.50;99.90;;;;;;5066786;28;20221;-85
2021/05/04 07:34:23;;;;;;;2.70;2.50;;;9.50;99.90;;;;;;5056439;28;20202;-82
2021/05/04 07:36:50;;;;;;;2.80;2.60;;;9.50;99.90;;;;;;5074454;28;20198;-84
2021/05/04 07:39:17;;;;;;;2.63;2.42;;;9.60;99.90;;;;;;5056524;28;20222;-86
2021/05/04 07:41:44;;;;;;;2.30;2.20;;;9.70;99.90;;;;;;5073798;28;20202;-82
2021/05/04 07:44:12;;;;;;;2.10;1.92;;;9.80;99.90;;;;;;5074371;28;20197;-82
2021/05/04 07:46:38;;;;;;;2.20;2.10;;;9.90;99.90;;;;;;5075231;28;20246;-84
2021/05/04 07:49:10;;;;;;;3.33;2.33;;;9.90;99.90;;;;;;5094003;28;20199;-85
2021/05/04 07:51:38;;;;;;;2.80;2.53;;;9.80;99.90;;;;;;5093469;28;20225;-84
2021/05/04 07:54:05;;;;;;;3.20;2.40;;;9.70;99.90;;;;;;5073370;28;20198;-84
2021/05/04 07:56:33;;;;;;;2.47;2.28;;;9.80;99.90;;;;;;5058871;28;20198;-83
2021/05/04 07:59:00;;;;;;;2.85;2.60;;;9.80;99.90;;;;;;5072466;28;20366;-80
2021/05/04 08:01:27;;;;;;;3.03;2.83;;;9.70;99.90;;;;;;5040044;28;20262;-84
2021/05/04 08:03:54;;;;;;;2.20;2.10;;;9.60;99.90;;;;;;5061375;28;20229;-86
2021/05/04 08:06:20;;;;;;;3.15;2.58;;;9.50;99.90;;;;;;5072439;28;20195;-84
2021/05/04 08:08:47;;;;;;;2.45;2.28;;;9.40;99.90;;;;;;5069313;28;20198;-82
2021/05/04 08:11:14;;;;;;;4.10;3.70;;;9.40;99.90;;;;;;5039092;28;20261;-83
2021/05/04 08:13:41;;;;;;;2.58;2.38;;;9.40;99.90;;;;;;5056660;28;20202;-83
2021/05/04 08:16:10;;;;;;;2.97;2.72;;;9.40;99.90;;;;;;5073245;28;20348;-84
2021/05/04 08:18:39;;;;;;;2.90;2.60;;;9.30;99.90;;;;;;5075796;28;20616;-83
2021/05/04 08:21:06;;;;;;;2.60;2.40;;;9.30;99.90;;;;;;5070072;28;20647;-83
2021/05/04 08:23:33;;;;;;;3.30;2.60;;;9.20;99.90;;;;;;5067573;28;20190;-83
2021/05/04 08:25:59;;;;;;;2.75;2.55;;;9.20;99.90;;;;;;5055771;28;20240;-84
2021/05/04 08:28:26;;;;;;;3.47;2.75;;;9.30;99.90;;;;;;5060425;28;20213;-83
2021/05/04 08:30:53;;;;;;;2.92;2.42;;;9.40;99.90;;;;;;5079199;28;20355;-83
2021/05/04 08:33:22;;;;;;;2.95;2.53;;;9.60;99.90;;;;;;5064870;28;20219;-85
2021/05/04 08:35:48;;;;;;;3.90;2.45;;;9.70;99.90;;;;;;5067402;28;20209;-84
2021/05/04 08:38:15;;;;;;;2.30;2.20;;;10.00;99.90;;;;;;5063980;28;20204;-85
2021/05/04 08:40:43;;;;;;;2.90;2.70;;;10.00;99.90;;;;;;5045714;28;20222;-85
2021/05/04 08:43:10;;;;;;;3.17;2.17;;;10.00;99.90;;;;;;5061554;28;20205;-83
2021/05/04 08:45:41;;;;;;;2.47;1.98;;;10.10;99.90;;;;;;5081539;28;20677;-84
2021/05/04 08:48:07;;;;;;;2.35;2.15;;;10.00;99.90;;;;;;5080309;28;20285;-86
2021/05/04 08:50:38;;;;;;;2.72;2.05;;;10.10;99.90;;;;;;5061444;28;20248;-84
2021/05/04 08:53:05;;;;;;;4.80;2.00;;;10.10;99.90;;;;;;5044261;28;20236;-86
2021/05/04 08:55:31;;;;;;;1.75;1.65;;;10.10;99.90;;;;;;5057890;28;20722;-85
2021/05/04 08:57:58;;;;;;;3.70;2.60;;;10.20;99.90;;;;;;5059528;28;20221;-83
2021/05/04 09:00:24;;;;;;;3.78;2.40;;;10.30;99.90;;;;;;5076816;28;20249;-84
2021/05/04 09:03:01;;;;;;;3.72;2.25;;;10.40;99.90;;;;;;5077916;28;20234;-84
2021/05/04 09:05:40;;;;;;;2.03;1.77;;;10.40;99.90;;;;;;5058853;28;20217;-83
2021/05/04 09:08:29;;;;;;;1.88;1.73;;;10.50;99.90;;;;;;5060394;28;20245;-84
2021/05/04 09:10:57;;;;;;;3.33;2.08;;;10.50;99.90;;;;;;5062030;28;20720;-85
2021/05/04 09:13:27;;;;;;;4.13;1.70;;;10.60;99.90;;;;;;5070976;28;20207;-84
2021/05/04 09:18:53;;;;;;;1.50;1.40;;;10.60;99.90;;;;;;5060513;28;20190;-84
2021/05/04 09:21:33;;;;;;;2.75;1.95;;;10.50;99.90;;;;;;5080350;28;20213;-84
2021/05/04 09:24:18;;;;;;;4.65;2.03;;;10.60;99.90;;;;;;5078899;28;20248;-83
2021/05/04 09:26:45;;;;;;;2.08;1.98;;;10.50;99.90;;;;;;5078578;28;20286;-84
2021/05/04 09:29:12;;;;;;;2.08;1.75;;;10.50;99.90;;;;;;5059762;28;20249;-84
2021/05/04 09:31:40;;;;;;;1.52;1.42;;;10.60;99.90;;;;;;5060905;28;20222;-84
2021/05/04 09:34:09;;;;;;;1.90;1.80;;;10.60;99.90;;;;;;5042417;28;20641;-82
2021/05/04 09:36:46;;;;;;;2.35;1.83;;;10.70;99.90;;;;;;5078865;28;20195;-82
2021/05/04 09:39:24;;;;;;;1.88;1.73;;;10.60;99.90;;;;;;5077442;28;20217;-84
2021/05/04 09:41:52;;;;;;;1.58;1.48;;;10.80;99.90;;;;;;5079601;28;20747;-84
2021/05/04 09:44:37;;;;;;;1.90;1.45;;;10.80;99.90;;;;;;5062417;28;20222;-84
2021/05/04 09:47:04;;;;;;;2.08;1.50;;;10.90;99.90;;;;;;5079955;28;20210;-85
2021/05/04 09:49:32;;;;;;;1.55;1.45;;;11.00;99.90;;;;;;5061944;28;20210;-84
2021/05/04 09:52:20;;;;;;;1.33;1.30;;;11.20;99.90;;;;;;5063121;28;20720;-80
2021/05/04 09:54:47;;;;;;;1.50;1.40;;;11.30;99.90;;;;;;5058979;28;20256;-85
2021/05/04 09:57:31;;;;;;;3.30;1.40;;;11.30;99.90;;;;;;5046741;28;20207;-86
2021/05/04 09:59:58;;;;;;;2.83;1.40;;;11.50;99.90;;;;;;5045238;28;20215;-85
2021/05/04 10:02:25;;;;;;;1.17;1.08;;;11.60;99.90;;;;;;5080590;28;20189;-83
2021/05/04 10:04:53;;;;;;;1.40;1.27;;;11.90;99.90;;;;;;5061999;28;20199;-84
2021/05/04 10:07:22;;;;;;;4.00;1.33;;;11.80;99.90;;;;;;5059976;28;20205;-82
2021/05/04 10:09:49;;;;;;;1.25;1.15;;;11.90;99.90;;;;;;5078568;28;20207;-83
2021/05/04 10:12:20;;;;;;;3.45;0.93;;;12.00;99.90;;;;;;5062332;28;20214;-83
2021/05/04 10:14:48;;;;;;;4.95;1.25;;;11.80;99.90;;;;;;5063668;28;20210;-82
2021/05/04 10:17:17;;;;;;;1.17;0.80;;;11.80;99.90;;;;;;5060582;28;20329;-82
2021/05/04 10:19:44;;;;;;;1.35;1.10;;;11.70;99.90;;;;;;5078425;28;20278;-88
2021/05/04 10:22:12;;;;;;;0.88;0.88;;;11.80;99.90;;;;;;5082229;28;20199;-83
2021/05/04 10:24:41;;;;;;;1.27;1.10;;;11.90;99.90;;;;;;5063055;28;20198;-83
2021/05/04 10:27:08;;;;;;;0.55;0.50;;;11.90;99.90;;;;;;5061215;28;20194;-81
2021/05/04 10:29:37;;;;;;;0.77;0.77;;;12.20;99.90;;;;;;5061471;28;20709;-84
2021/05/04 10:32:05;;;;;;;1.05;1.00;;;12.40;99.90;;;;;;5035408;28;21622;-85
2021/05/04 10:34:34;;;;;;;3.55;1.38;;;12.70;99.90;;;;;;5061037;28;20194;-86
2021/05/04 10:37:03;;;;;;;1.00;0.98;;;12.80;99.90;;;;;;5065516;28;20209;-84
2021/05/04 10:39:35;;;;;;;4.88;1.17;;;13.00;99.90;;;;;;5075175;28;20214;-88
2021/05/04 10:42:05;;;;;;;4.07;1.00;;;13.00;99.90;;;;;;5062595;28;20246;-90
2021/05/04 10:44:47;;;;;;;2.72;1.67;;;12.80;99.90;;;;;;5079851;28;20209;-85
2021/05/04 10:47:47;;;;;;;2.47;1.88;;;12.80;99.90;;;;;;5063163;28;20203;-87
2021/05/04 10:50:15;;;;;;;1.08;0.90;;;13.10;99.90;;;;;;5097509;28;20221;-85
2021/05/04 10:53:01;;;;;;;3.20;1.23;;;13.40;99.90;;;;;;5102193;28;20202;-89
2021/05/04 10:56:01;;;;;;;4.10;0.70;;;13.30;99.90;;;;;;5084063;28;20216;-89
2021/05/04 10:58:42;;;;;;;3.38;1.30;;;13.60;99.90;;;;;;5083620;28;20223;-86
2021/05/04 11:01:10;;;;;;;0.60;0.60;;;13.50;99.90;;;;;;5092014;28;20246;-90
2021/05/04 11:03:53;;;;;;;0.93;0.90;;;13.40;99.90;;;;;;5077857;28;20198;-87
2021/05/04 11:06:57;;;;;;;2.30;1.20;;;13.60;99.90;;;;;;5079112;28;20209;-88
2021/05/04 11:09:24;;;;;;;1.50;1.23;;;13.50;99.90;;;;;;5105082;28;20197;-87
2021/05/04 11:11:52;;;;;;;1.63;1.05;;;13.50;99.90;;;;;;5097257;28;20203;-83
2021/05/04 11:14:28;;;;;;;4.78;0.90;;;13.40;99.90;;;;;;5079499;28;20272;-85
2021/05/04 11:17:21;;;;;;;1.25;0.77;;;13.40;99.90;;;;;;5096664;28;20201;-84
2021/05/04 11:19:49;;;;;;;1.85;1.08;;;13.70;99.90;;;;;;5086647;28;20202;-84
2021/05/04 11:22:19;;;;;;;0.77;0.77;;;13.70;99.90;;;;;;5095634;28;20202;-86
2021/05/04 11:24:48;;;;;;;0.70;0.70;;;13.80;99.90;;;;;;5079045;28;20224;-82
2021/05/04 11:27:27;;;;;;;1.10;1.10;;;13.40;99.90;;;;;;5078808;28;20224;-85
2021/05/04 11:29:58;;;;;;;1.05;0.95;;;12.70;99.90;;;;;;5085154;28;20284;-85
2021/05/04 11:32:28;;;;;;;1.08;1.08;;;12.50;99.90;;;;;;5067563;28;20206;-88
2021/05/04 11:34:58;;;;;;;0.65;0.65;;;12.40;99.90;;;;;;5063095;28;20205;-87
2021/05/04 11:37:37;;;;;;;29.35;1.70;;;12.50;99.90;;;;;;5093202;28;20240;-84
2021/05/04 11:40:07;;;;;;;0.80;0.80;;;12.80;99.90;;;;;;5039941;28;20222;-83
2021/05/04 11:42:36;;;;;;;0.82;0.82;;;13.00;99.90;;;;;;5060939;28;20191;-85
2021/05/04 11:45:08;;;;;;;1.17;1.08;;;12.80;99.90;;;;;;5061664;28;20202;-85
2021/05/04 11:47:36;;;;;;;1.45;1.35;;;12.70;99.90;;;;;;5065423;28;20727;-85
2021/05/04 11:50:05;;;;;;;0.80;0.80;;;12.50;99.90;;;;;;5083643;28;20215;-85
2021/05/04 11:52:32;;;;;;;1.08;0.98;;;12.20;99.90;;;;;;5065527;28;20226;-85
2021/05/04 11:55:08;;;;;;;1.30;1.20;;;12.20;99.90;;;;;;5061204;28;20476;-82
2021/05/04 11:57:36;;;;;;;1.05;1.00;;;12.10;99.90;;;;;;5060033;28;20191;-83
2021/05/04 12:00:06;;;;;;;1.23;1.13;;;12.10;99.90;;;;;;5076497;28;20214;-84
2021/05/04 12:02:38;;;;;;;1.75;1.27;;;12.30;99.90;;;;;;5100948;28;20726;-83
2021/05/04 12:05:07;;;;;;;1.10;1.00;;;12.70;99.90;;;;;;5064639;28;20723;-83
2021/05/04 12:07:36;;;;;;;1.40;1.33;;;13.20;99.90;;;;;;5081677;28;20205;-83
2021/05/04 12:10:05;;;;;;;1.08;0.80;;;13.80;99.90;;;;;;5083433;28;20274;-80
2021/05/04 12:12:42;;;;;;;5.00;1.02;;;13.60;99.90;;;;;;5082634;28;20218;-83
2021/05/04 12:15:13;;;;;;;2.33;1.00;;;13.60;99.90;;;;;;5080162;28;20194;-82
2021/05/04 12:17:40;;;;;;;2.90;1.30;;;14.10;99.90;;;;;;5096809;28;20257;-83
2021/05/04 12:20:12;;;;;;;3.38;1.10;;;14.20;99.90;;;;;;5079103;28;20294;-83
2021/05/04 12:22:43;;;;;;;1.40;1.00;;;14.40;99.90;;;;;;5073877;28;20194;-83
2021/05/04 12:25:12;;;;;;;0.93;0.93;;;13.90;99.90;;;;;;5077376;28;20358;-84
2021/05/04 12:27:39;;;;;;;1.10;1.10;;;13.70;99.90;;;;;;5059121;28;20206;-83
2021/05/04 12:30:11;;;;;;;3.15;1.20;;;13.40;99.90;;;;;;5062972;28;20604;-82
2021/05/04 12:32:39;;;;;;;3.00;1.15;;;13.10;99.90;;;;;;5097407;28;20309;-82
2021/05/04 12:35:18;;;;;;;1.17;1.08;;;12.60;99.90;;;;;;5077517;28;20202;-79
2021/05/04 12:37:47;;;;;;;1.50;1.40;;;12.40;99.90;;;;;;5060593;28;20198;-85
2021/05/04 12:40:17;;;;;;;1.95;1.20;;;12.60;99.90;;;;;;5098441;28;20229;-82
2021/05/04 12:42:47;;;;;;;2.00;1.90;;;12.60;99.90;;;;;;5065614;28;20251;-82
2021/05/04 12:45:16;;;;;;;1.38;1.08;;;12.80;99.90;;;;;;5086140;28;20198;-85
2021/05/04 12:47:50;;;;;;;6.60;1.83;;;12.80;99.90;;;;;;5092401;28;20194;-84
2021/05/04 12:50:32;;;;;;;5.57;1.35;;;12.50;99.90;;;;;;5061535;28;20222;-84
2021/05/04 12:53:00;;;;;;;3.90;1.45;;;12.10;99.90;;;;;;5067751;28;20308;-85
2021/05/04 12:55:26;;;;;;;1.10;1.00;;;11.60;99.90;;;;;;5100836;28;20680;-84
2021/05/04 12:58:11;;;;;;;2.55;1.30;;;11.00;99.90;;;;;;5083086;28;20213;-87
2021/05/04 13:00:39;;;;;;;2.28;1.65;;;10.40;99.90;;;;;;5082455;28;20278;-83
2021/05/04 13:03:11;;;;;;;1.40;1.30;;;10.60;99.90;;;;;;5100115;28;20200;-82